sensor_id;sensor_type;location;lat;lon;timestamp;P1;durP1;ratioP1;P2;durP2;ratioP2
66085;SDS011;52868;49.758;9.586;2022-09-09T00:04:15;0.70;;;0.70;;
66085;SDS011;52868;49.758;9.586;2022-09-09T00:12:26;1.80;;;0.90;;
66085;SDS011;52868;49.758;9.586;2022-09-09T00:15:05;0.88;;;0.73;;
66085;SDS011;52868;49.758;9.586;2022-09-09T00:17:56;1.48;;;0.90;;
66085;SDS011;52868;49.758;9.586;2022-09-09T00:22:57;1.33;;;0.80;;
66085;SDS011;52868;49.758;9.586;2022-09-09T00:28:24;1.58;;;0.70;;
66085;SDS011;52868;49.758;9.586;2022-09-09T00:30:52;0.93;;;0.82;;
66085;SDS011;52868;49.758;9.586;2022-09-09T00:33:19;1.38;;;0.80;;
66085;SDS011;52868;49.758;9.586;2022-09-09T00:35:51;3.55;;;0.82;;
66085;SDS011;52868;49.758;9.586;2022-09-09T00:40:52;2.35;;;0.90;;
66085;SDS011;52868;49.758;9.586;2022-09-09T00:43:26;0.60;;;0.60;;
66085;SDS011;52868;49.758;9.586;2022-09-09T00:45:59;2.97;;;0.90;;
66085;SDS011;52868;49.758;9.586;2022-09-09T00:51:55;0.60;;;0.60;;
66085;SDS011;52868;49.758;9.586;2022-09-09T00:54:40;1.02;;;0.75;;
66085;SDS011;52868;49.758;9.586;2022-09-09T01:00:33;3.13;;;0.95;;
66085;SDS011;52868;49.758;9.586;2022-09-09T01:08:28;1.30;;;0.90;;
66085;SDS011;52868;49.758;9.586;2022-09-09T01:11:03;0.50;;;0.50;;
66085;SDS011;52868;49.758;9.586;2022-09-09T01:13:31;0.90;;;0.80;;
66085;SDS011;52868;49.758;9.586;2022-09-09T01:15:59;1.65;;;0.75;;
66085;SDS011;52868;49.758;9.586;2022-09-09T01:18:34;5.50;;;0.90;;
66085;SDS011;52868;49.758;9.586;2022-09-09T01:26:54;2.08;;;0.77;;
66085;SDS011;52868;49.758;9.586;2022-09-09T01:29:24;2.85;;;0.68;;
66085;SDS011;52868;49.758;9.586;2022-09-09T01:31:57;2.53;;;0.70;;
66085;SDS011;52868;49.758;9.586;2022-09-09T01:34:33;2.83;;;0.82;;
66085;SDS011;52868;49.758;9.586;2022-09-09T01:37:06;0.57;;;0.57;;
66085;SDS011;52868;49.758;9.586;2022-09-09T01:39:34;1.40;;;0.60;;
66085;SDS011;52868;49.758;9.586;2022-09-09T01:42:01;0.63;;;0.63;;
66085;SDS011;52868;49.758;9.586;2022-09-09T01:44:29;1.00;;;0.63;;
66085;SDS011;52868;49.758;9.586;2022-09-09T01:46:55;1.38;;;0.65;;
66085;SDS011;52868;49.758;9.586;2022-09-09T01:49:21;0.65;;;0.65;;
66085;SDS011;52868;49.758;9.586;2022-09-09T01:51:48;1.40;;;0.80;;
66085;SDS011;52868;49.758;9.586;2022-09-09T01:54:17;3.78;;;0.80;;
66085;SDS011;52868;49.758;9.586;2022-09-09T02:04:23;3.00;;;0.73;;
66085;SDS011;52868;49.758;9.586;2022-09-09T02:07:00;2.22;;;0.80;;
66085;SDS011;52868;49.758;9.586;2022-09-09T02:09:25;0.98;;;0.70;;
66085;SDS011;52868;49.758;9.586;2022-09-09T02:11:56;3.03;;;0.73;;
66085;SDS011;52868;49.758;9.586;2022-09-09T02:14:38;3.28;;;0.65;;
66085;SDS011;52868;49.758;9.586;2022-09-09T02:17:10;0.70;;;0.50;;
66085;SDS011;52868;49.758;9.586;2022-09-09T02:19:45;1.20;;;0.60;;
66085;SDS011;52868;49.758;9.586;2022-09-09T02:22:17;1.20;;;0.60;;
66085;SDS011;52868;49.758;9.586;2022-09-09T02:24:46;2.13;;;0.70;;
66085;SDS011;52868;49.758;9.586;2022-09-09T02:27:15;5.20;;;0.60;;
66085;SDS011;52868;49.758;9.586;2022-09-09T02:29:43;1.35;;;0.60;;
66085;SDS011;52868;49.758;9.586;2022-09-09T02:32:13;1.20;;;0.80;;
66085;SDS011;52868;49.758;9.586;2022-09-09T02:34:43;0.77;;;0.65;;
66085;SDS011;52868;49.758;9.586;2022-09-09T02:37:11;0.73;;;0.70;;
66085;SDS011;52868;49.758;9.586;2022-09-09T02:39:40;2.50;;;0.93;;
66085;SDS011;52868;49.758;9.586;2022-09-09T02:42:05;1.63;;;0.80;;
66085;SDS011;52868;49.758;9.586;2022-09-09T02:44:33;3.03;;;0.90;;
66085;SDS011;52868;49.758;9.586;2022-09-09T02:52:15;1.65;;;0.85;;
66085;SDS011;52868;49.758;9.586;2022-09-09T02:54:46;1.92;;;0.90;;
66085;SDS011;52868;49.758;9.586;2022-09-09T02:59:48;1.58;;;0.80;;
66085;SDS011;52868;49.758;9.586;2022-09-09T03:02:15;4.43;;;0.77;;
66085;SDS011;52868;49.758;9.586;2022-09-09T03:04:41;2.22;;;1.08;;
66085;SDS011;52868;49.758;9.586;2022-09-09T03:07:09;0.80;;;0.70;;
66085;SDS011;52868;49.758;9.586;2022-09-09T03:09:38;1.00;;;0.80;;
66085;SDS011;52868;49.758;9.586;2022-09-09T03:12:04;2.22;;;0.70;;
66085;SDS011;52868;49.758;9.586;2022-09-09T03:14:30;1.25;;;0.60;;
66085;SDS011;52868;49.758;9.586;2022-09-09T03:16:56;3.25;;;0.80;;
66085;SDS011;52868;49.758;9.586;2022-09-09T03:19:25;1.02;;;0.70;;
66085;SDS011;52868;49.758;9.586;2022-09-09T03:21:52;2.50;;;0.80;;
66085;SDS011;52868;49.758;9.586;2022-09-09T03:24:18;5.30;;;1.00;;
66085;SDS011;52868;49.758;9.586;2022-09-09T03:26:44;2.95;;;0.80;;
66085;SDS011;52868;49.758;9.586;2022-09-09T03:29:11;1.38;;;0.73;;
66085;SDS011;52868;49.758;9.586;2022-09-09T03:31:37;1.10;;;0.90;;
66085;SDS011;52868;49.758;9.586;2022-09-09T03:34:03;1.23;;;0.75;;
66085;SDS011;52868;49.758;9.586;2022-09-09T03:36:29;5.78;;;0.85;;
66085;SDS011;52868;49.758;9.586;2022-09-09T03:38:55;2.63;;;0.90;;
66085;SDS011;52868;49.758;9.586;2022-09-09T03:41:21;0.73;;;0.73;;
66085;SDS011;52868;49.758;9.586;2022-09-09T03:43:51;1.13;;;0.70;;
66085;SDS011;52868;49.758;9.586;2022-09-09T03:46:18;3.22;;;0.90;;
66085;SDS011;52868;49.758;9.586;2022-09-09T03:48:45;6.82;;;1.02;;
66085;SDS011;52868;49.758;9.586;2022-09-09T03:51:11;5.18;;;0.90;;
66085;SDS011;52868;49.758;9.586;2022-09-09T03:53:36;2.25;;;1.05;;
66085;SDS011;52868;49.758;9.586;2022-09-09T03:56:03;1.50;;;0.80;;
66085;SDS011;52868;49.758;9.586;2022-09-09T03:58:32;6.33;;;1.00;;
66085;SDS011;52868;49.758;9.586;2022-09-09T04:00:59;2.55;;;0.80;;
66085;SDS011;52868;49.758;9.586;2022-09-09T04:03:27;1.02;;;0.85;;
66085;SDS011;52868;49.758;9.586;2022-09-09T04:05:54;0.85;;;0.82;;
66085;SDS011;52868;49.758;9.586;2022-09-09T04:08:21;3.15;;;1.00;;
66085;SDS011;52868;49.758;9.586;2022-09-09T04:10:47;1.45;;;0.82;;
66085;SDS011;52868;49.758;9.586;2022-09-09T04:13:14;3.72;;;0.80;;
66085;SDS011;52868;49.758;9.586;2022-09-09T04:15:42;2.20;;;0.68;;
66085;SDS011;52868;49.758;9.586;2022-09-09T04:18:08;1.60;;;0.80;;
66085;SDS011;52868;49.758;9.586;2022-09-09T04:20:34;1.50;;;0.90;;
66085;SDS011;52868;49.758;9.586;2022-09-09T04:23:00;1.10;;;1.00;;
66085;SDS011;52868;49.758;9.586;2022-09-09T04:25:26;0.80;;;0.80;;
66085;SDS011;52868;49.758;9.586;2022-09-09T04:27:55;1.80;;;1.10;;
66085;SDS011;52868;49.758;9.586;2022-09-09T04:30:21;2.60;;;0.95;;
66085;SDS011;52868;49.758;9.586;2022-09-09T04:32:47;4.63;;;1.15;;
66085;SDS011;52868;49.758;9.586;2022-09-09T04:35:14;2.55;;;1.20;;
66085;SDS011;52868;49.758;9.586;2022-09-09T04:37:40;1.45;;;0.93;;
66085;SDS011;52868;49.758;9.586;2022-09-09T04:40:06;1.38;;;1.02;;
66085;SDS011;52868;49.758;9.586;2022-09-09T04:42:36;1.23;;;0.82;;
66085;SDS011;52868;49.758;9.586;2022-09-09T04:45:02;4.15;;;1.00;;
66085;SDS011;52868;49.758;9.586;2022-09-09T04:47:28;3.45;;;0.98;;
66085;SDS011;52868;49.758;9.586;2022-09-09T04:49:53;1.02;;;0.90;;
66085;SDS011;52868;49.758;9.586;2022-09-09T04:52:19;4.45;;;0.98;;
66085;SDS011;52868;49.758;9.586;2022-09-09T04:54:45;3.13;;;1.00;;
66085;SDS011;52868;49.758;9.586;2022-09-09T04:57:11;1.25;;;0.90;;
66085;SDS011;52868;49.758;9.586;2022-09-09T04:59:37;3.97;;;1.10;;
66085;SDS011;52868;49.758;9.586;2022-09-09T05:02:04;1.15;;;0.90;;
66085;SDS011;52868;49.758;9.586;2022-09-09T05:04:30;2.17;;;1.02;;
66085;SDS011;52868;49.758;9.586;2022-09-09T05:06:55;1.35;;;1.00;;
66085;SDS011;52868;49.758;9.586;2022-09-09T05:09:21;2.50;;;1.00;;
66085;SDS011;52868;49.758;9.586;2022-09-09T05:11:49;2.60;;;1.10;;
66085;SDS011;52868;49.758;9.586;2022-09-09T05:14:15;1.05;;;0.75;;
66085;SDS011;52868;49.758;9.586;2022-09-09T05:16:41;4.50;;;1.00;;
66085;SDS011;52868;49.758;9.586;2022-09-09T05:19:09;3.45;;;0.80;;
66085;SDS011;52868;49.758;9.586;2022-09-09T05:21:35;1.85;;;0.90;;
66085;SDS011;52868;49.758;9.586;2022-09-09T05:24:01;2.90;;;0.82;;
66085;SDS011;52868;49.758;9.586;2022-09-09T05:26:26;1.00;;;0.90;;
66085;SDS011;52868;49.758;9.586;2022-09-09T05:28:54;1.27;;;1.05;;
66085;SDS011;52868;49.758;9.586;2022-09-09T05:31:20;4.05;;;0.98;;
66085;SDS011;52868;49.758;9.586;2022-09-09T05:33:46;3.10;;;0.88;;
66085;SDS011;52868;49.758;9.586;2022-09-09T05:36:18;2.17;;;0.80;;
66085;SDS011;52868;49.758;9.586;2022-09-09T05:38:45;1.25;;;0.80;;
66085;SDS011;52868;49.758;9.586;2022-09-09T05:41:11;5.60;;;1.00;;
66085;SDS011;52868;49.758;9.586;2022-09-09T05:43:40;3.35;;;0.90;;
66085;SDS011;52868;49.758;9.586;2022-09-09T05:46:08;5.38;;;1.05;;
66085;SDS011;52868;49.758;9.586;2022-09-09T05:48:45;2.90;;;0.73;;
66085;SDS011;52868;49.758;9.586;2022-09-09T05:51:17;3.90;;;0.90;;
66085;SDS011;52868;49.758;9.586;2022-09-09T05:53:46;1.25;;;0.88;;
66085;SDS011;52868;49.758;9.586;2022-09-09T05:56:22;1.85;;;0.90;;
66085;SDS011;52868;49.758;9.586;2022-09-09T05:58:50;3.53;;;0.90;;
66085;SDS011;52868;49.758;9.586;2022-09-09T06:01:21;1.05;;;0.73;;
66085;SDS011;52868;49.758;9.586;2022-09-09T06:03:47;4.63;;;0.93;;
66085;SDS011;52868;49.758;9.586;2022-09-09T06:06:15;2.10;;;0.70;;
66085;SDS011;52868;49.758;9.586;2022-09-09T06:08:48;5.15;;;1.10;;
66085;SDS011;52868;49.758;9.586;2022-09-09T06:11:17;3.07;;;0.80;;
66085;SDS011;52868;49.758;9.586;2022-09-09T06:13:51;1.50;;;0.80;;
66085;SDS011;52868;49.758;9.586;2022-09-09T06:16:20;1.60;;;0.65;;
66085;SDS011;52868;49.758;9.586;2022-09-09T06:18:51;0.90;;;0.75;;
66085;SDS011;52868;49.758;9.586;2022-09-09T06:21:23;2.85;;;0.80;;
66085;SDS011;52868;49.758;9.586;2022-09-09T06:23:50;2.28;;;0.80;;
66085;SDS011;52868;49.758;9.586;2022-09-09T06:26:21;1.30;;;0.77;;
66085;SDS011;52868;49.758;9.586;2022-09-09T06:31:17;1.02;;;0.75;;
66085;SDS011;52868;49.758;9.586;2022-09-09T06:33:47;3.30;;;0.70;;
66085;SDS011;52868;49.758;9.586;2022-09-09T06:36:16;1.42;;;0.80;;
66085;SDS011;52868;49.758;9.586;2022-09-09T06:38:43;1.90;;;0.80;;
66085;SDS011;52868;49.758;9.586;2022-09-09T06:41:11;6.38;;;1.10;;
66085;SDS011;52868;49.758;9.586;2022-09-09T06:43:38;2.17;;;1.08;;
66085;SDS011;52868;49.758;9.586;2022-09-09T06:46:05;1.40;;;0.82;;
66085;SDS011;52868;49.758;9.586;2022-09-09T06:48:33;2.35;;;1.00;;
66085;SDS011;52868;49.758;9.586;2022-09-09T06:51:06;3.47;;;0.70;;
66085;SDS011;52868;49.758;9.586;2022-09-09T06:53:34;0.60;;;0.60;;
66085;SDS011;52868;49.758;9.586;2022-09-09T06:58:39;0.85;;;0.70;;
66085;SDS011;52868;49.758;9.586;2022-09-09T07:01:13;0.57;;;0.55;;
66085;SDS011;52868;49.758;9.586;2022-09-09T07:03:40;2.65;;;0.73;;
66085;SDS011;52868;49.758;9.586;2022-09-09T07:06:13;1.13;;;0.70;;
66085;SDS011;52868;49.758;9.586;2022-09-09T07:08:42;1.25;;;0.60;;
66085;SDS011;52868;49.758;9.586;2022-09-09T07:11:09;3.58;;;0.85;;
66085;SDS011;52868;49.758;9.586;2022-09-09T07:13:36;2.22;;;0.50;;
66085;SDS011;52868;49.758;9.586;2022-09-09T07:16:09;1.30;;;0.70;;
66085;SDS011;52868;49.758;9.586;2022-09-09T07:18:38;2.80;;;0.85;;
66085;SDS011;52868;49.758;9.586;2022-09-09T07:21:04;1.05;;;0.63;;
66085;SDS011;52868;49.758;9.586;2022-09-09T07:23:31;1.00;;;0.50;;
66085;SDS011;52868;49.758;9.586;2022-09-09T07:25:57;3.60;;;0.88;;
66085;SDS011;52868;49.758;9.586;2022-09-09T07:28:23;4.30;;;0.65;;
66085;SDS011;52868;49.758;9.586;2022-09-09T07:30:53;0.50;;;0.50;;
66085;SDS011;52868;49.758;9.586;2022-09-09T07:33:24;0.82;;;0.65;;
66085;SDS011;52868;49.758;9.586;2022-09-09T07:35:51;3.10;;;0.70;;
66085;SDS011;52868;49.758;9.586;2022-09-09T07:38:17;2.25;;;0.73;;
66085;SDS011;52868;49.758;9.586;2022-09-09T07:40:45;2.85;;;0.90;;
66085;SDS011;52868;49.758;9.586;2022-09-09T07:43:11;1.42;;;0.70;;
66085;SDS011;52868;49.758;9.586;2022-09-09T07:45:37;2.28;;;0.52;;
66085;SDS011;52868;49.758;9.586;2022-09-09T07:48:02;1.65;;;0.70;;
66085;SDS011;52868;49.758;9.586;2022-09-09T07:50:29;5.22;;;0.80;;
66085;SDS011;52868;49.758;9.586;2022-09-09T07:52:54;0.80;;;0.60;;
66085;SDS011;52868;49.758;9.586;2022-09-09T07:55:21;5.97;;;0.70;;
66085;SDS011;52868;49.758;9.586;2022-09-09T07:57:50;3.10;;;0.90;;
66085;SDS011;52868;49.758;9.586;2022-09-09T08:00:16;3.28;;;0.93;;
66085;SDS011;52868;49.758;9.586;2022-09-09T08:02:41;2.80;;;0.70;;
66085;SDS011;52868;49.758;9.586;2022-09-09T08:05:07;5.93;;;0.93;;
66085;SDS011;52868;49.758;9.586;2022-09-09T08:07:33;3.30;;;0.85;;
66085;SDS011;52868;49.758;9.586;2022-09-09T08:09:59;0.75;;;0.50;;
66085;SDS011;52868;49.758;9.586;2022-09-09T08:12:24;1.95;;;0.70;;
66085;SDS011;52868;49.758;9.586;2022-09-09T08:14:50;1.30;;;0.70;;
66085;SDS011;52868;49.758;9.586;2022-09-09T08:17:16;5.40;;;1.25;;
66085;SDS011;52868;49.758;9.586;2022-09-09T08:19:42;8.38;;;0.98;;
66085;SDS011;52868;49.758;9.586;2022-09-09T08:22:09;4.55;;;0.70;;
66085;SDS011;52868;49.758;9.586;2022-09-09T08:24:35;1.65;;;0.70;;
66085;SDS011;52868;49.758;9.586;2022-09-09T08:27:01;1.98;;;0.82;;
66085;SDS011;52868;49.758;9.586;2022-09-09T08:29:26;5.00;;;1.00;;
66085;SDS011;52868;49.758;9.586;2022-09-09T08:31:54;2.33;;;0.70;;
66085;SDS011;52868;49.758;9.586;2022-09-09T08:34:22;4.07;;;1.17;;
66085;SDS011;52868;49.758;9.586;2022-09-09T08:36:48;0.95;;;0.50;;
66085;SDS011;52868;49.758;9.586;2022-09-09T08:39:16;7.53;;;0.90;;
66085;SDS011;52868;49.758;9.586;2022-09-09T08:52:28;3.85;;;0.80;;
66085;SDS011;52868;49.758;9.586;2022-09-09T08:54:57;3.72;;;0.70;;
66085;SDS011;52868;49.758;9.586;2022-09-09T08:57:29;1.35;;;0.80;;
66085;SDS011;52868;49.758;9.586;2022-09-09T08:59:57;5.28;;;1.02;;
66085;SDS011;52868;49.758;9.586;2022-09-09T09:02:46;2.20;;;0.90;;
66085;SDS011;52868;49.758;9.586;2022-09-09T09:05:26;2.30;;;0.57;;
66085;SDS011;52868;49.758;9.586;2022-09-09T09:08:13;2.17;;;0.80;;
66085;SDS011;52868;49.758;9.586;2022-09-09T09:10:46;3.40;;;0.80;;
66085;SDS011;52868;49.758;9.586;2022-09-09T09:13:21;2.17;;;0.88;;
66085;SDS011;52868;49.758;9.586;2022-09-09T09:16:06;4.70;;;0.90;;
66085;SDS011;52868;49.758;9.586;2022-09-09T09:18:57;2.50;;;0.82;;
66085;SDS011;52868;49.758;9.586;2022-09-09T09:21:45;2.35;;;0.70;;
66085;SDS011;52868;49.758;9.586;2022-09-09T09:24:14;4.13;;;1.00;;
66085;SDS011;52868;49.758;9.586;2022-09-09T09:26:44;3.97;;;0.85;;
66085;SDS011;52868;49.758;9.586;2022-09-09T09:29:10;4.95;;;0.93;;
66085;SDS011;52868;49.758;9.586;2022-09-09T09:31:38;5.43;;;1.00;;
66085;SDS011;52868;49.758;9.586;2022-09-09T09:34:04;2.92;;;1.00;;
66085;SDS011;52868;49.758;9.586;2022-09-09T09:36:45;4.72;;;1.05;;
66085;SDS011;52868;49.758;9.586;2022-09-09T09:39:23;11.35;;;0.90;;
66085;SDS011;52868;49.758;9.586;2022-09-09T09:41:51;3.85;;;0.90;;
66085;SDS011;52868;49.758;9.586;2022-09-09T09:44:24;3.83;;;1.05;;
66085;SDS011;52868;49.758;9.586;2022-09-09T09:47:08;1.88;;;0.77;;
66085;SDS011;52868;49.758;9.586;2022-09-09T09:49:53;2.25;;;0.90;;
66085;SDS011;52868;49.758;9.586;2022-09-09T09:52:25;3.47;;;1.02;;
66085;SDS011;52868;49.758;9.586;2022-09-09T09:54:54;3.83;;;0.90;;
66085;SDS011;52868;49.758;9.586;2022-09-09T09:57:26;2.20;;;0.77;;
66085;SDS011;52868;49.758;9.586;2022-09-09T10:00:27;6.07;;;1.00;;
66085;SDS011;52868;49.758;9.586;2022-09-09T10:02:47;7.07;;;1.10;;
66085;SDS011;52868;49.758;9.586;2022-09-09T10:05:18;5.07;;;0.90;;
66085;SDS011;52868;49.758;9.586;2022-09-09T10:07:45;1.33;;;0.70;;
66085;SDS011;52868;49.758;9.586;2022-09-09T10:10:21;2.50;;;0.85;;
66085;SDS011;52868;49.758;9.586;2022-09-09T10:13:03;7.50;;;1.13;;
66085;SDS011;52868;49.758;9.586;2022-09-09T10:16:07;2.25;;;0.80;;
66085;SDS011;52868;49.758;9.586;2022-09-09T10:19:15;3.58;;;1.08;;
66085;SDS011;52868;49.758;9.586;2022-09-09T10:21:48;5.97;;;1.10;;
66085;SDS011;52868;49.758;9.586;2022-09-09T10:24:46;1.00;;;0.70;;
66085;SDS011;52868;49.758;9.586;2022-09-09T10:30:18;9.82;;;1.15;;
66085;SDS011;52868;49.758;9.586;2022-09-09T10:33:10;1.55;;;0.80;;
66085;SDS011;52868;49.758;9.586;2022-09-09T10:39:03;0.82;;;0.63;;
66085;SDS011;52868;49.758;9.586;2022-09-09T10:52:23;1.10;;;0.50;;
66085;SDS011;52868;49.758;9.586;2022-09-09T10:55:12;4.35;;;0.65;;
66085;SDS011;52868;49.758;9.586;2022-09-09T10:57:40;2.85;;;0.50;;
66085;SDS011;52868;49.758;9.586;2022-09-09T11:00:14;1.95;;;0.60;;
66085;SDS011;52868;49.758;9.586;2022-09-09T11:05:30;1.15;;;0.60;;
66085;SDS011;52868;49.758;9.586;2022-09-09T11:08:05;0.93;;;0.68;;
66085;SDS011;52868;49.758;9.586;2022-09-09T11:10:52;3.47;;;0.60;;
66085;SDS011;52868;49.758;9.586;2022-09-09T11:13:30;0.95;;;0.80;;
66085;SDS011;52868;49.758;9.586;2022-09-09T11:18:37;2.03;;;0.60;;
66085;SDS011;52868;49.758;9.586;2022-09-09T11:21:07;2.38;;;0.60;;
66085;SDS011;52868;49.758;9.586;2022-09-09T11:23:42;3.33;;;0.77;;
66085;SDS011;52868;49.758;9.586;2022-09-09T11:26:13;1.77;;;0.70;;
66085;SDS011;52868;49.758;9.586;2022-09-09T11:42:20;1.77;;;0.80;;
66085;SDS011;52868;49.758;9.586;2022-09-09T11:44:49;2.47;;;0.70;;
66085;SDS011;52868;49.758;9.586;2022-09-09T11:47:16;2.65;;;0.77;;
66085;SDS011;52868;49.758;9.586;2022-09-09T11:49:51;1.05;;;0.70;;
66085;SDS011;52868;49.758;9.586;2022-09-09T11:52:23;1.25;;;0.70;;
66085;SDS011;52868;49.758;9.586;2022-09-09T11:55:30;1.38;;;0.70;;
66085;SDS011;52868;49.758;9.586;2022-09-09T12:08:43;1.45;;;0.60;;
66085;SDS011;52868;49.758;9.586;2022-09-09T12:11:11;0.90;;;0.65;;
66085;SDS011;52868;49.758;9.586;2022-09-09T12:13:55;2.80;;;0.65;;
66085;SDS011;52868;49.758;9.586;2022-09-09T12:22:11;5.47;;;0.80;;
66085;SDS011;52868;49.758;9.586;2022-09-09T12:24:52;1.63;;;0.55;;
66085;SDS011;52868;49.758;9.586;2022-09-09T12:27:41;4.07;;;0.73;;
66085;SDS011;52868;49.758;9.586;2022-09-09T12:30:12;0.95;;;0.70;;
66085;SDS011;52868;49.758;9.586;2022-09-09T12:32:40;3.92;;;0.85;;
66085;SDS011;52868;49.758;9.586;2022-09-09T12:35:13;2.13;;;0.70;;
66085;SDS011;52868;49.758;9.586;2022-09-09T12:37:52;3.30;;;0.70;;
66085;SDS011;52868;49.758;9.586;2022-09-09T12:42:48;5.95;;;0.75;;
66085;SDS011;52868;49.758;9.586;2022-09-09T12:45:16;1.58;;;0.73;;
66085;SDS011;52868;49.758;9.586;2022-09-09T12:50:33;1.90;;;0.60;;
66085;SDS011;52868;49.758;9.586;2022-09-09T12:53:47;0.60;;;0.60;;
66085;SDS011;52868;49.758;9.586;2022-09-09T12:55:55;3.08;;;0.80;;
66085;SDS011;52868;49.758;9.586;2022-09-09T12:58:23;0.63;;;0.60;;
66085;SDS011;52868;49.758;9.586;2022-09-09T13:00:53;5.47;;;0.60;;
66085;SDS011;52868;49.758;9.586;2022-09-09T13:03:21;3.13;;;0.70;;
66085;SDS011;52868;49.758;9.586;2022-09-09T13:05:48;3.28;;;0.80;;
66085;SDS011;52868;49.758;9.586;2022-09-09T13:08:15;0.57;;;0.57;;
66085;SDS011;52868;49.758;9.586;2022-09-09T13:10:53;1.27;;;0.45;;
66085;SDS011;52868;49.758;9.586;2022-09-09T13:13:22;1.20;;;0.68;;
66085;SDS011;52868;49.758;9.586;2022-09-09T13:15:51;3.92;;;0.70;;
66085;SDS011;52868;49.758;9.586;2022-09-09T13:18:24;1.33;;;0.60;;
66085;SDS011;52868;49.758;9.586;2022-09-09T13:20:54;2.92;;;0.57;;
66085;SDS011;52868;49.758;9.586;2022-09-09T13:23:22;3.97;;;0.70;;
66085;SDS011;52868;49.758;9.586;2022-09-09T13:25:56;1.42;;;0.60;;
66085;SDS011;52868;49.758;9.586;2022-09-09T13:28:26;2.72;;;0.75;;
66085;SDS011;52868;49.758;9.586;2022-09-09T13:33:29;3.53;;;0.73;;
66085;SDS011;52868;49.758;9.586;2022-09-09T13:38:24;1.85;;;0.60;;
66085;SDS011;52868;49.758;9.586;2022-09-09T13:40:57;2.38;;;0.70;;
66085;SDS011;52868;49.758;9.586;2022-09-09T13:43:31;1.25;;;0.60;;
66085;SDS011;52868;49.758;9.586;2022-09-09T13:46:05;2.00;;;0.80;;
66085;SDS011;52868;49.758;9.586;2022-09-09T13:51:35;2.75;;;0.75;;
66085;SDS011;52868;49.758;9.586;2022-09-09T13:54:05;3.42;;;0.90;;
66085;SDS011;52868;49.758;9.586;2022-09-09T13:56:35;5.10;;;0.90;;
66085;SDS011;52868;49.758;9.586;2022-09-09T13:59:02;0.60;;;0.55;;
66085;SDS011;52868;49.758;9.586;2022-09-09T14:01:29;3.92;;;0.80;;
66085;SDS011;52868;49.758;9.586;2022-09-09T14:03:55;0.68;;;0.68;;
66085;SDS011;52868;49.758;9.586;2022-09-09T14:06:21;0.63;;;0.52;;
66085;SDS011;52868;49.758;9.586;2022-09-09T14:08:50;2.47;;;0.60;;
66085;SDS011;52868;49.758;9.586;2022-09-09T14:11:16;2.35;;;0.60;;
66085;SDS011;52868;49.758;9.586;2022-09-09T14:13:42;2.72;;;0.70;;
66085;SDS011;52868;49.758;9.586;2022-09-09T14:16:08;6.70;;;1.10;;
66085;SDS011;52868;49.758;9.586;2022-09-09T14:18:34;2.13;;;0.77;;
66085;SDS011;52868;49.758;9.586;2022-09-09T14:21:00;1.75;;;0.60;;
66085;SDS011;52868;49.758;9.586;2022-09-09T14:23:27;2.38;;;0.73;;
66085;SDS011;52868;49.758;9.586;2022-09-09T14:25:54;2.38;;;0.60;;
66085;SDS011;52868;49.758;9.586;2022-09-09T14:28:20;0.60;;;0.60;;
66085;SDS011;52868;49.758;9.586;2022-09-09T14:30:45;2.50;;;0.50;;
66085;SDS011;52868;49.758;9.586;2022-09-09T14:33:12;1.02;;;0.45;;
66085;SDS011;52868;49.758;9.586;2022-09-09T14:35:39;1.55;;;0.47;;
66085;SDS011;52868;49.758;9.586;2022-09-09T14:38:06;0.40;;;0.40;;
66085;SDS011;52868;49.758;9.586;2022-09-09T14:40:33;0.60;;;0.60;;
66085;SDS011;52868;49.758;9.586;2022-09-09T14:42:59;1.35;;;1.00;;
66085;SDS011;52868;49.758;9.586;2022-09-09T14:45:25;0.73;;;0.63;;
66085;SDS011;52868;49.758;9.586;2022-09-09T14:47:51;0.77;;;0.63;;
66085;SDS011;52868;49.758;9.586;2022-09-09T14:50:18;1.08;;;0.55;;
66085;SDS011;52868;49.758;9.586;2022-09-09T14:52:44;3.83;;;0.75;;
66085;SDS011;52868;49.758;9.586;2022-09-09T14:55:10;2.40;;;0.57;;
66085;SDS011;52868;49.758;9.586;2022-09-09T14:57:36;0.75;;;0.50;;
66085;SDS011;52868;49.758;9.586;2022-09-09T15:00:04;0.77;;;0.38;;
66085;SDS011;52868;49.758;9.586;2022-09-09T15:02:30;5.10;;;1.92;;
66085;SDS011;52868;49.758;9.586;2022-09-09T15:04:56;8.95;;;3.72;;
66085;SDS011;52868;49.758;9.586;2022-09-09T15:07:23;6.68;;;2.83;;
66085;SDS011;52868;49.758;9.586;2022-09-09T15:09:53;5.70;;;2.20;;
66085;SDS011;52868;49.758;9.586;2022-09-09T15:12:19;7.93;;;2.95;;
66085;SDS011;52868;49.758;9.586;2022-09-09T15:14:45;3.78;;;1.75;;
66085;SDS011;52868;49.758;9.586;2022-09-09T15:17:12;5.32;;;2.10;;
66085;SDS011;52868;49.758;9.586;2022-09-09T15:19:38;11.25;;;4.50;;
66085;SDS011;52868;49.758;9.586;2022-09-09T15:22:07;7.20;;;2.40;;
66085;SDS011;52868;49.758;9.586;2022-09-09T15:24:33;6.85;;;2.25;;
66085;SDS011;52868;49.758;9.586;2022-09-09T15:27:00;3.55;;;1.52;;
66085;SDS011;52868;49.758;9.586;2022-09-09T15:29:27;3.33;;;1.08;;
66085;SDS011;52868;49.758;9.586;2022-09-09T15:31:55;3.97;;;1.52;;
66085;SDS011;52868;49.758;9.586;2022-09-09T15:34:21;3.90;;;1.15;;
66085;SDS011;52868;49.758;9.586;2022-09-09T15:36:47;1.65;;;0.70;;
66085;SDS011;52868;49.758;9.586;2022-09-09T15:39:16;1.73;;;0.65;;
66085;SDS011;52868;49.758;9.586;2022-09-09T15:41:43;2.25;;;0.88;;
66085;SDS011;52868;49.758;9.586;2022-09-09T15:44:10;2.60;;;0.85;;
66085;SDS011;52868;49.758;9.586;2022-09-09T15:49:23;2.38;;;0.70;;
66085;SDS011;52868;49.758;9.586;2022-09-09T15:51:54;2.08;;;1.02;;
66085;SDS011;52868;49.758;9.586;2022-09-09T15:54:22;1.50;;;0.60;;
66085;SDS011;52868;49.758;9.586;2022-09-09T15:57:00;1.17;;;0.68;;
66085;SDS011;52868;49.758;9.586;2022-09-09T15:59:29;0.63;;;0.60;;
66085;SDS011;52868;49.758;9.586;2022-09-09T16:01:55;1.88;;;0.60;;
66085;SDS011;52868;49.758;9.586;2022-09-09T16:04:22;2.55;;;0.57;;
66085;SDS011;52868;49.758;9.586;2022-09-09T16:06:59;1.67;;;0.60;;
66085;SDS011;52868;49.758;9.586;2022-09-09T16:09:29;2.28;;;0.55;;
66085;SDS011;52868;49.758;9.586;2022-09-09T16:11:59;4.70;;;0.63;;
66085;SDS011;52868;49.758;9.586;2022-09-09T16:14:31;2.95;;;0.77;;
66085;SDS011;52868;49.758;9.586;2022-09-09T16:16:59;0.90;;;0.40;;
66085;SDS011;52868;49.758;9.586;2022-09-09T16:19:25;3.53;;;0.80;;
66085;SDS011;52868;49.758;9.586;2022-09-09T16:21:50;5.07;;;0.68;;
66085;SDS011;52868;49.758;9.586;2022-09-09T16:24:17;3.78;;;0.93;;
66085;SDS011;52868;49.758;9.586;2022-09-09T16:26:44;2.58;;;0.70;;
66085;SDS011;52868;49.758;9.586;2022-09-09T16:29:15;0.40;;;0.40;;
66085;SDS011;52868;49.758;9.586;2022-09-09T16:31:42;1.13;;;0.60;;
66085;SDS011;52868;49.758;9.586;2022-09-09T16:34:09;7.43;;;0.70;;
66085;SDS011;52868;49.758;9.586;2022-09-09T16:36:35;1.60;;;0.50;;
66085;SDS011;52868;49.758;9.586;2022-09-09T16:39:04;2.80;;;0.60;;
66085;SDS011;52868;49.758;9.586;2022-09-09T16:41:33;1.65;;;0.50;;
66085;SDS011;52868;49.758;9.586;2022-09-09T16:44:00;1.85;;;0.80;;
66085;SDS011;52868;49.758;9.586;2022-09-09T16:46:28;5.18;;;0.73;;
66085;SDS011;52868;49.758;9.586;2022-09-09T16:48:56;0.83;;;0.43;;
66085;SDS011;52868;49.758;9.586;2022-09-09T16:51:27;3.05;;;0.50;;
66085;SDS011;52868;49.758;9.586;2022-09-09T16:53:58;1.45;;;0.50;;
66085;SDS011;52868;49.758;9.586;2022-09-09T16:56:26;2.08;;;0.50;;
66085;SDS011;52868;49.758;9.586;2022-09-09T16:58:57;4.65;;;0.63;;
66085;SDS011;52868;49.758;9.586;2022-09-09T17:01:26;2.45;;;0.70;;
66085;SDS011;52868;49.758;9.586;2022-09-09T17:03:57;1.73;;;0.70;;
66085;SDS011;52868;49.758;9.586;2022-09-09T17:06:23;1.55;;;0.68;;
66085;SDS011;52868;49.758;9.586;2022-09-09T17:08:56;1.33;;;0.80;;
66085;SDS011;52868;49.758;9.586;2022-09-09T17:11:23;1.65;;;0.60;;
66085;SDS011;52868;49.758;9.586;2022-09-09T17:13:50;1.88;;;0.60;;
66085;SDS011;52868;49.758;9.586;2022-09-09T17:16:17;1.20;;;0.77;;
66085;SDS011;52868;49.758;9.586;2022-09-09T17:18:46;4.18;;;0.60;;